sensor_id;sensor_type;location;lat;lon;timestamp;temperature;humidity
5134;DHT22;2585;48.696;10.066;2024-03-22T00:00:45;3.30;87.40
5134;DHT22;2585;48.696;10.066;2024-03-22T00:03:11;3.20;87.60
5134;DHT22;2585;48.696;10.066;2024-03-22T00:05:37;3.30;87.90
5134;DHT22;2585;48.696;10.066;2024-03-22T00:08:03;3.20;88.00
5134;DHT22;2585;48.696;10.066;2024-03-22T00:10:29;3.20;87.80
5134;DHT22;2585;48.696;10.066;2024-03-22T00:12:54;3.20;87.50
5134;DHT22;2585;48.696;10.066;2024-03-22T00:15:20;3.20;87.00
5134;DHT22;2585;48.696;10.066;2024-03-22T00:17:46;3.10;86.90
5134;DHT22;2585;48.696;10.066;2024-03-22T00:20:12;3.10;87.40
5134;DHT22;2585;48.696;10.066;2024-03-22T00:22:38;3.00;87.60
5134;DHT22;2585;48.696;10.066;2024-03-22T00:25:04;3.00;87.60
5134;DHT22;2585;48.696;10.066;2024-03-22T00:27:32;3.00;87.70
5134;DHT22;2585;48.696;10.066;2024-03-22T00:29:57;2.90;87.80
5134;DHT22;2585;48.696;10.066;2024-03-22T00:32:23;2.90;87.90
5134;DHT22;2585;48.696;10.066;2024-03-22T00:34:49;2.90;88.10
5134;DHT22;2585;48.696;10.066;2024-03-22T00:37:15;2.80;88.00
5134;DHT22;2585;48.696;10.066;2024-03-22T00:39:41;2.80;88.40
5134;DHT22;2585;48.696;10.066;2024-03-22T00:42:06;2.70;88.70
5134;DHT22;2585;48.696;10.066;2024-03-22T00:44:32;2.70;88.90
5134;DHT22;2585;48.696;10.066;2024-03-22T00:46:58;2.60;88.60
5134;DHT22;2585;48.696;10.066;2024-03-22T00:49:25;2.60;88.30
5134;DHT22;2585;48.696;10.066;2024-03-22T00:51:50;2.60;88.60
5134;DHT22;2585;48.696;10.066;2024-03-22T00:54:16;2.50;89.00
5134;DHT22;2585;48.696;10.066;2024-03-22T00:56:43;2.50;89.90
5134;DHT22;2585;48.696;10.066;2024-03-22T00:59:09;2.50;89.90
5134;DHT22;2585;48.696;10.066;2024-03-22T01:01:35;2.50;90.00
5134;DHT22;2585;48.696;10.066;2024-03-22T01:04:00;2.40;90.00
5134;DHT22;2585;48.696;10.066;2024-03-22T01:06:26;2.30;90.00
5134;DHT22;2585;48.696;10.066;2024-03-22T01:08:52;2.30;90.30
5134;DHT22;2585;48.696;10.066;2024-03-22T01:11:18;2.30;90.40
5134;DHT22;2585;48.696;10.066;2024-03-22T01:13:44;2.20;90.40
5134;DHT22;2585;48.696;10.066;2024-03-22T01:16:10;2.20;90.70
5134;DHT22;2585;48.696;10.066;2024-03-22T01:18:36;2.20;90.70
5134;DHT22;2585;48.696;10.066;2024-03-22T01:21:03;2.10;90.50
5134;DHT22;2585;48.696;10.066;2024-03-22T01:23:29;2.10;90.50
5134;DHT22;2585;48.696;10.066;2024-03-22T01:25:55;2.10;90.70
5134;DHT22;2585;48.696;10.066;2024-03-22T01:28:20;2.10;90.80
5134;DHT22;2585;48.696;10.066;2024-03-22T01:30:46;2.10;90.90
5134;DHT22;2585;48.696;10.066;2024-03-22T01:33:12;2.00;90.80
5134;DHT22;2585;48.696;10.066;2024-03-22T01:35:38;2.00;90.90
5134;DHT22;2585;48.696;10.066;2024-03-22T01:38:04;2.00;91.00
5134;DHT22;2585;48.696;10.066;2024-03-22T01:40:30;2.00;91.00
5134;DHT22;2585;48.696;10.066;2024-03-22T01:42:57;2.10;91.00
5134;DHT22;2585;48.696;10.066;2024-03-22T01:45:23;2.00;91.00
5134;DHT22;2585;48.696;10.066;2024-03-22T01:47:54;2.00;90.90
5134;DHT22;2585;48.696;10.066;2024-03-22T01:50:23;1.90;90.90
5134;DHT22;2585;48.696;10.066;2024-03-22T01:52:50;1.90;91.20
5134;DHT22;2585;48.696;10.066;2024-03-22T01:55:16;1.90;91.40
5134;DHT22;2585;48.696;10.066;2024-03-22T01:57:42;1.80;91.50
5134;DHT22;2585;48.696;10.066;2024-03-22T02:00:09;1.80;91.60
5134;DHT22;2585;48.696;10.066;2024-03-22T02:02:35;1.80;91.70
5134;DHT22;2585;48.696;10.066;2024-03-22T02:07:39;1.80;91.70
5134;DHT22;2585;48.696;10.066;2024-03-22T02:10:05;1.70;91.80
5134;DHT22;2585;48.696;10.066;2024-03-22T02:12:33;1.70;91.80
5134;DHT22;2585;48.696;10.066;2024-03-22T02:14:59;1.70;91.80
5134;DHT22;2585;48.696;10.066;2024-03-22T02:17:25;1.60;91.90
5134;DHT22;2585;48.696;10.066;2024-03-22T02:19:51;1.60;91.90
5134;DHT22;2585;48.696;10.066;2024-03-22T02:22:17;1.60;92.00
5134;DHT22;2585;48.696;10.066;2024-03-22T02:24:43;1.60;92.00
5134;DHT22;2585;48.696;10.066;2024-03-22T02:27:08;1.50;91.90
5134;DHT22;2585;48.696;10.066;2024-03-22T02:29:34;1.50;91.90
5134;DHT22;2585;48.696;10.066;2024-03-22T02:32:00;1.50;92.00
5134;DHT22;2585;48.696;10.066;2024-03-22T02:34:26;1.40;91.90
5134;DHT22;2585;48.696;10.066;2024-03-22T02:36:52;1.40;91.90
5134;DHT22;2585;48.696;10.066;2024-03-22T02:39:17;1.40;91.90
5134;DHT22;2585;48.696;10.066;2024-03-22T02:41:43;1.40;91.80
5134;DHT22;2585;48.696;10.066;2024-03-22T02:44:09;1.40;91.80
5134;DHT22;2585;48.696;10.066;2024-03-22T02:46:35;1.40;91.80
5134;DHT22;2585;48.696;10.066;2024-03-22T02:49:01;1.30;91.70
5134;DHT22;2585;48.696;10.066;2024-03-22T02:51:26;1.20;91.80
5134;DHT22;2585;48.696;10.066;2024-03-22T02:53:52;1.20;91.90
5134;DHT22;2585;48.696;10.066;2024-03-22T02:56:18;1.20;91.90
5134;DHT22;2585;48.696;10.066;2024-03-22T02:58:44;1.20;92.00
5134;DHT22;2585;48.696;10.066;2024-03-22T03:01:10;1.10;91.90
5134;DHT22;2585;48.696;10.066;2024-03-22T03:03:36;1.10;91.90
5134;DHT22;2585;48.696;10.066;2024-03-22T03:06:02;1.10;91.90
5134;DHT22;2585;48.696;10.066;2024-03-22T03:08:27;1.10;92.00
5134;DHT22;2585;48.696;10.066;2024-03-22T03:10:53;1.10;91.90
5134;DHT22;2585;48.696;10.066;2024-03-22T03:13:19;1.00;91.90
5134;DHT22;2585;48.696;10.066;2024-03-22T03:15:45;1.00;91.90
5134;DHT22;2585;48.696;10.066;2024-03-22T03:18:11;1.00;91.90
5134;DHT22;2585;48.696;10.066;2024-03-22T03:20:36;0.90;92.00
5134;DHT22;2585;48.696;10.066;2024-03-22T03:23:03;1.00;92.10
5134;DHT22;2585;48.696;10.066;2024-03-22T03:25:29;0.90;92.10
5134;DHT22;2585;48.696;10.066;2024-03-22T03:27:55;0.90;92.20
5134;DHT22;2585;48.696;10.066;2024-03-22T03:30:21;0.90;92.20
5134;DHT22;2585;48.696;10.066;2024-03-22T03:32:47;0.90;92.30
5134;DHT22;2585;48.696;10.066;2024-03-22T03:35:13;0.90;92.30
5134;DHT22;2585;48.696;10.066;2024-03-22T03:37:38;0.80;92.30
5134;DHT22;2585;48.696;10.066;2024-03-22T03:40:05;0.80;92.30
5134;DHT22;2585;48.696;10.066;2024-03-22T03:42:31;0.80;92.30
5134;DHT22;2585;48.696;10.066;2024-03-22T03:44:56;0.70;92.30
5134;DHT22;2585;48.696;10.066;2024-03-22T03:47:22;0.80;92.50
5134;DHT22;2585;48.696;10.066;2024-03-22T03:49:48;0.80;92.50
5134;DHT22;2585;48.696;10.066;2024-03-22T03:52:14;0.70;92.50
5134;DHT22;2585;48.696;10.066;2024-03-22T03:54:40;0.70;92.50
5134;DHT22;2585;48.696;10.066;2024-03-22T03:57:06;0.70;92.50
5134;DHT22;2585;48.696;10.066;2024-03-22T03:59:32;0.60;92.50
5134;DHT22;2585;48.696;10.066;2024-03-22T04:01:57;0.60;92.50
5134;DHT22;2585;48.696;10.066;2024-03-22T04:04:23;0.60;92.50
5134;DHT22;2585;48.696;10.066;2024-03-22T04:06:49;0.60;92.50
5134;DHT22;2585;48.696;10.066;2024-03-22T04:09:15;0.50;92.50
5134;DHT22;2585;48.696;10.066;2024-03-22T04:11:41;0.50;92.60
5134;DHT22;2585;48.696;10.066;2024-03-22T04:14:06;0.50;92.70
5134;DHT22;2585;48.696;10.066;2024-03-22T04:16:32;0.50;92.70
5134;DHT22;2585;48.696;10.066;2024-03-22T04:18:58;0.50;92.70
5134;DHT22;2585;48.696;10.066;2024-03-22T04:21:24;0.50;92.70
5134;DHT22;2585;48.696;10.066;2024-03-22T04:23:50;0.50;92.70
5134;DHT22;2585;48.696;10.066;2024-03-22T04:26:16;0.50;92.70
5134;DHT22;2585;48.696;10.066;2024-03-22T04:28:42;0.50;92.70
5134;DHT22;2585;48.696;10.066;2024-03-22T04:31:08;0.50;92.80
5134;DHT22;2585;48.696;10.066;2024-03-22T04:33:35;0.40;92.70
5134;DHT22;2585;48.696;10.066;2024-03-22T04:36:02;0.50;92.80
5134;DHT22;2585;48.696;10.066;2024-03-22T04:38:29;0.50;92.80
5134;DHT22;2585;48.696;10.066;2024-03-22T04:40:55;0.40;92.80
5134;DHT22;2585;48.696;10.066;2024-03-22T04:43:23;0.50;92.80
5134;DHT22;2585;48.696;10.066;2024-03-22T04:45:50;0.40;92.80
5134;DHT22;2585;48.696;10.066;2024-03-22T04:48:20;0.40;92.80
5134;DHT22;2585;48.696;10.066;2024-03-22T04:50:50;0.40;92.80
5134;DHT22;2585;48.696;10.066;2024-03-22T04:53:22;0.40;92.90
5134;DHT22;2585;48.696;10.066;2024-03-22T04:55:48;0.40;92.90
5134;DHT22;2585;48.696;10.066;2024-03-22T04:58:19;0.40;93.00
5134;DHT22;2585;48.696;10.066;2024-03-22T05:00:47;0.40;93.00
5134;DHT22;2585;48.696;10.066;2024-03-22T05:03:13;0.40;93.00
5134;DHT22;2585;48.696;10.066;2024-03-22T05:05:40;0.40;93.00
5134;DHT22;2585;48.696;10.066;2024-03-22T05:08:07;0.40;93.10
5134;DHT22;2585;48.696;10.066;2024-03-22T05:10:34;0.40;93.10
5134;DHT22;2585;48.696;10.066;2024-03-22T05:12:59;0.40;93.10
5134;DHT22;2585;48.696;10.066;2024-03-22T05:15:26;0.40;93.10
5134;DHT22;2585;48.696;10.066;2024-03-22T05:17:52;0.40;93.10
5134;DHT22;2585;48.696;10.066;2024-03-22T05:20:22;0.40;93.10
5134;DHT22;2585;48.696;10.066;2024-03-22T05:22:48;0.40;93.20
5134;DHT22;2585;48.696;10.066;2024-03-22T05:25:14;0.40;93.20
5134;DHT22;2585;48.696;10.066;2024-03-22T05:27:41;0.30;93.20
5134;DHT22;2585;48.696;10.066;2024-03-22T05:30:11;0.30;93.20
5134;DHT22;2585;48.696;10.066;2024-03-22T05:32:37;0.30;93.20
5134;DHT22;2585;48.696;10.066;2024-03-22T05:35:04;0.30;93.20
5134;DHT22;2585;48.696;10.066;2024-03-22T05:37:30;0.30;93.20
5134;DHT22;2585;48.696;10.066;2024-03-22T05:39:56;0.40;93.30
5134;DHT22;2585;48.696;10.066;2024-03-22T05:42:22;0.40;93.30
5134;DHT22;2585;48.696;10.066;2024-03-22T05:44:48;0.40;93.30
5134;DHT22;2585;48.696;10.066;2024-03-22T05:47:13;0.40;93.40
5134;DHT22;2585;48.696;10.066;2024-03-22T05:49:39;0.40;93.40
5134;DHT22;2585;48.696;10.066;2024-03-22T05:52:05;0.40;93.40
5134;DHT22;2585;48.696;10.066;2024-03-22T05:54:31;0.40;93.40
5134;DHT22;2585;48.696;10.066;2024-03-22T05:56:57;0.50;93.50
5134;DHT22;2585;48.696;10.066;2024-03-22T05:59:23;0.50;93.50
5134;DHT22;2585;48.696;10.066;2024-03-22T06:01:49;0.50;93.50
5134;DHT22;2585;48.696;10.066;2024-03-22T06:04:15;0.60;93.60
5134;DHT22;2585;48.696;10.066;2024-03-22T06:06:41;0.70;93.60
5134;DHT22;2585;48.696;10.066;2024-03-22T06:09:06;0.70;93.70
5134;DHT22;2585;48.696;10.066;2024-03-22T06:11:36;0.70;93.70
5134;DHT22;2585;48.696;10.066;2024-03-22T06:14:02;0.90;93.80
5134;DHT22;2585;48.696;10.066;2024-03-22T06:16:28;0.90;93.80
5134;DHT22;2585;48.696;10.066;2024-03-22T06:18:54;1.00;93.90
5134;DHT22;2585;48.696;10.066;2024-03-22T06:21:20;1.20;94.00
5134;DHT22;2585;48.696;10.066;2024-03-22T06:23:51;1.40;94.10
5134;DHT22;2585;48.696;10.066;2024-03-22T06:26:17;1.50;94.20
5134;DHT22;2585;48.696;10.066;2024-03-22T06:28:43;1.60;94.20
5134;DHT22;2585;48.696;10.066;2024-03-22T06:31:09;1.80;94.30
5134;DHT22;2585;48.696;10.066;2024-03-22T06:33:35;1.90;94.30
5134;DHT22;2585;48.696;10.066;2024-03-22T06:36:01;2.00;94.40
5134;DHT22;2585;48.696;10.066;2024-03-22T06:38:29;2.20;94.50
5134;DHT22;2585;48.696;10.066;2024-03-22T06:40:54;2.30;94.50
5134;DHT22;2585;48.696;10.066;2024-03-22T06:43:20;2.40;94.50
5134;DHT22;2585;48.696;10.066;2024-03-22T06:45:49;2.50;94.60
5134;DHT22;2585;48.696;10.066;2024-03-22T06:48:17;2.60;94.60
5134;DHT22;2585;48.696;10.066;2024-03-22T06:50:43;2.70;94.60
5134;DHT22;2585;48.696;10.066;2024-03-22T06:53:09;2.80;94.70
5134;DHT22;2585;48.696;10.066;2024-03-22T06:55:36;3.00;94.70
5134;DHT22;2585;48.696;10.066;2024-03-22T06:58:02;3.20;94.80
5134;DHT22;2585;48.696;10.066;2024-03-22T07:00:28;3.40;94.90
5134;DHT22;2585;48.696;10.066;2024-03-22T07:02:54;3.70;95.00
5134;DHT22;2585;48.696;10.066;2024-03-22T07:05:21;3.90;95.00
5134;DHT22;2585;48.696;10.066;2024-03-22T07:07:47;4.20;95.10
5134;DHT22;2585;48.696;10.066;2024-03-22T07:10:13;4.50;95.20
5134;DHT22;2585;48.696;10.066;2024-03-22T07:12:39;4.80;95.20
5134;DHT22;2585;48.696;10.066;2024-03-22T07:15:05;5.00;95.20
5134;DHT22;2585;48.696;10.066;2024-03-22T07:17:31;5.20;95.20
5134;DHT22;2585;48.696;10.066;2024-03-22T07:19:57;5.60;95.30
5134;DHT22;2585;48.696;10.066;2024-03-22T07:22:23;6.00;95.40
5134;DHT22;2585;48.696;10.066;2024-03-22T07:24:49;6.40;90.80
5134;DHT22;2585;48.696;10.066;2024-03-22T07:27:17;6.70;90.70
5134;DHT22;2585;48.696;10.066;2024-03-22T07:29:44;6.90;90.60
5134;DHT22;2585;48.696;10.066;2024-03-22T07:32:10;7.30;90.60
5134;DHT22;2585;48.696;10.066;2024-03-22T07:34:36;7.30;90.10
5134;DHT22;2585;48.696;10.066;2024-03-22T07:37:02;7.30;89.30
5134;DHT22;2585;48.696;10.066;2024-03-22T07:39:29;7.40;89.00
5134;DHT22;2585;48.696;10.066;2024-03-22T07:41:55;7.60;88.30
5134;DHT22;2585;48.696;10.066;2024-03-22T07:44:21;7.80;88.10
5134;DHT22;2585;48.696;10.066;2024-03-22T07:46:49;8.30;89.30
5134;DHT22;2585;48.696;10.066;2024-03-22T07:49:15;8.70;89.00
5134;DHT22;2585;48.696;10.066;2024-03-22T07:51:41;8.90;87.20
5134;DHT22;2585;48.696;10.066;2024-03-22T07:54:07;8.90;85.40
5134;DHT22;2585;48.696;10.066;2024-03-22T07:56:33;9.00;82.90
5134;DHT22;2585;48.696;10.066;2024-03-22T07:58:59;9.00;85.10
5134;DHT22;2585;48.696;10.066;2024-03-22T08:01:25;9.40;85.50
5134;DHT22;2585;48.696;10.066;2024-03-22T08:03:51;9.30;81.00
5134;DHT22;2585;48.696;10.066;2024-03-22T08:06:17;9.50;83.00
5134;DHT22;2585;48.696;10.066;2024-03-22T08:08:43;9.60;75.70
5134;DHT22;2585;48.696;10.066;2024-03-22T08:11:09;10.00;78.00
5134;DHT22;2585;48.696;10.066;2024-03-22T08:13:35;10.30;77.50
5134;DHT22;2585;48.696;10.066;2024-03-22T08:16:01;10.40;65.50
5134;DHT22;2585;48.696;10.066;2024-03-22T08:18:27;10.70;69.30
5134;DHT22;2585;48.696;10.066;2024-03-22T08:20:53;10.90;66.80
5134;DHT22;2585;48.696;10.066;2024-03-22T08:23:19;11.20;64.90
5134;DHT22;2585;48.696;10.066;2024-03-22T08:25:46;11.50;61.60
5134;DHT22;2585;48.696;10.066;2024-03-22T08:28:12;11.60;65.50
5134;DHT22;2585;48.696;10.066;2024-03-22T08:30:43;11.70;25.50
5134;DHT22;2585;48.696;10.066;2024-03-22T08:33:09;11.80;4.20
5134;DHT22;2585;48.696;10.066;2024-03-22T08:35:35;11.90;1.00
5134;DHT22;2585;48.696;10.066;2024-03-22T08:38:01;12.10;1.00
5134;DHT22;2585;48.696;10.066;2024-03-22T08:40:27;12.40;1.00
5134;DHT22;2585;48.696;10.066;2024-03-22T08:42:53;12.70;1.00
5134;DHT22;2585;48.696;10.066;2024-03-22T08:45:19;13.00;1.00
5134;DHT22;2585;48.696;10.066;2024-03-22T08:47:45;13.20;83.20
5134;DHT22;2585;48.696;10.066;2024-03-22T08:50:11;13.10;1.00
5134;DHT22;2585;48.696;10.066;2024-03-22T08:52:37;13.10;1.00
5134;DHT22;2585;48.696;10.066;2024-03-22T08:55:04;13.00;85.10
5134;DHT22;2585;48.696;10.066;2024-03-22T08:57:33;12.90;82.60
5134;DHT22;2585;48.696;10.066;2024-03-22T08:59:59;12.70;74.70
5134;DHT22;2585;48.696;10.066;2024-03-22T09:02:25;12.70;74.80
5134;DHT22;2585;48.696;10.066;2024-03-22T09:04:50;12.80;69.50
5134;DHT22;2585;48.696;10.066;2024-03-22T09:07:17;13.00;3.30
5134;DHT22;2585;48.696;10.066;2024-03-22T09:09:43;13.30;1.00
5134;DHT22;2585;48.696;10.066;2024-03-22T09:12:09;13.30;1.00
5134;DHT22;2585;48.696;10.066;2024-03-22T09:14:35;13.60;84.30
5134;DHT22;2585;48.696;10.066;2024-03-22T09:17:00;13.90;67.50
5134;DHT22;2585;48.696;10.066;2024-03-22T09:19:26;14.20;8.20
5134;DHT22;2585;48.696;10.066;2024-03-22T09:21:53;14.00;1.00
5134;DHT22;2585;48.696;10.066;2024-03-22T09:24:19;13.90;1.00
5134;DHT22;2585;48.696;10.066;2024-03-22T09:26:45;13.90;1.00
5134;DHT22;2585;48.696;10.066;2024-03-22T09:29:13;14.40;1.00
5134;DHT22;2585;48.696;10.066;2024-03-22T09:31:39;15.00;1.00
5134;DHT22;2585;48.696;10.066;2024-03-22T09:34:05;15.00;77.00
5134;DHT22;2585;48.696;10.066;2024-03-22T09:36:31;15.30;64.40
5134;DHT22;2585;48.696;10.066;2024-03-22T09:39:01;15.30;52.00
5134;DHT22;2585;48.696;10.066;2024-03-22T09:41:27;15.60;39.80
5134;DHT22;2585;48.696;10.066;2024-03-22T09:43:58;15.50;1.00
5134;DHT22;2585;48.696;10.066;2024-03-22T09:46:26;15.60;1.00
5134;DHT22;2585;48.696;10.066;2024-03-22T09:48:54;16.00;1.00
5134;DHT22;2585;48.696;10.066;2024-03-22T09:51:21;16.40;1.00
5134;DHT22;2585;48.696;10.066;2024-03-22T09:53:52;15.90;1.00
5134;DHT22;2585;48.696;10.066;2024-03-22T09:56:21;16.20;91.60
5134;DHT22;2585;48.696;10.066;2024-03-22T09:58:47;16.10;82.40
5134;DHT22;2585;48.696;10.066;2024-03-22T10:01:14;16.50;77.30
5134;DHT22;2585;48.696;10.066;2024-03-22T10:03:41;16.50;66.60
5134;DHT22;2585;48.696;10.066;2024-03-22T10:06:07;16.50;34.90
5134;DHT22;2585;48.696;10.066;2024-03-22T10:08:33;17.00;45.50
5134;DHT22;2585;48.696;10.066;2024-03-22T10:11:02;17.10;9.20
5134;DHT22;2585;48.696;10.066;2024-03-22T10:13:28;17.40;1.00
5134;DHT22;2585;48.696;10.066;2024-03-22T10:15:56;17.40;1.00
5134;DHT22;2585;48.696;10.066;2024-03-22T10:18:22;17.60;1.00
5134;DHT22;2585;48.696;10.066;2024-03-22T10:20:59;17.50;1.00
5134;DHT22;2585;48.696;10.066;2024-03-22T10:23:25;17.30;1.00
5134;DHT22;2585;48.696;10.066;2024-03-22T10:25:51;17.40;93.40
5134;DHT22;2585;48.696;10.066;2024-03-22T10:28:17;17.50;91.70
5134;DHT22;2585;48.696;10.066;2024-03-22T10:30:44;17.60;88.70
5134;DHT22;2585;48.696;10.066;2024-03-22T10:33:14;17.90;84.40
5134;DHT22;2585;48.696;10.066;2024-03-22T10:35:41;17.80;75.30
5134;DHT22;2585;48.696;10.066;2024-03-22T10:38:08;17.90;68.60
5134;DHT22;2585;48.696;10.066;2024-03-22T10:40:37;18.00;65.30
5134;DHT22;2585;48.696;10.066;2024-03-22T10:43:03;18.20;58.60
5134;DHT22;2585;48.696;10.066;2024-03-22T10:45:29;18.60;54.50
5134;DHT22;2585;48.696;10.066;2024-03-22T10:47:55;18.30;20.40
5134;DHT22;2585;48.696;10.066;2024-03-22T10:50:22;18.60;18.40
5134;DHT22;2585;48.696;10.066;2024-03-22T10:52:56;18.90;12.40
5134;DHT22;2585;48.696;10.066;2024-03-22T10:55:35;18.40;1.00
5134;DHT22;2585;48.696;10.066;2024-03-22T10:58:01;18.10;1.00
5134;DHT22;2585;48.696;10.066;2024-03-22T11:00:31;18.50;1.00
5134;DHT22;2585;48.696;10.066;2024-03-22T11:02:58;18.80;1.00
5134;DHT22;2585;48.696;10.066;2024-03-22T11:05:26;18.80;1.00
5134;DHT22;2585;48.696;10.066;2024-03-22T11:08:04;18.60;1.00
5134;DHT22;2585;48.696;10.066;2024-03-22T11:10:33;18.90;1.00
5134;DHT22;2585;48.696;10.066;2024-03-22T11:13:03;19.00;1.00
5134;DHT22;2585;48.696;10.066;2024-03-22T11:15:29;19.20;1.00
5134;DHT22;2585;48.696;10.066;2024-03-22T11:17:56;18.50;92.20
5134;DHT22;2585;48.696;10.066;2024-03-22T11:20:22;18.70;92.00
5134;DHT22;2585;48.696;10.066;2024-03-22T11:22:47;18.80;90.60
5134;DHT22;2585;48.696;10.066;2024-03-22T11:25:13;18.60;87.30
5134;DHT22;2585;48.696;10.066;2024-03-22T11:27:39;18.50;83.30
5134;DHT22;2585;48.696;10.066;2024-03-22T11:30:07;18.50;78.60
5134;DHT22;2585;48.696;10.066;2024-03-22T11:32:33;19.10;79.40
5134;DHT22;2585;48.696;10.066;2024-03-22T11:35:11;19.60;78.90
5134;DHT22;2585;48.696;10.066;2024-03-22T11:37:41;19.80;75.60
5134;DHT22;2585;48.696;10.066;2024-03-22T11:40:09;20.00;72.40
5134;DHT22;2585;48.696;10.066;2024-03-22T11:42:41;19.60;61.90
5134;DHT22;2585;48.696;10.066;2024-03-22T11:45:08;19.00;51.50
5134;DHT22;2585;48.696;10.066;2024-03-22T11:47:35;19.10;52.70
5134;DHT22;2585;48.696;10.066;2024-03-22T11:50:02;19.30;46.50
5134;DHT22;2585;48.696;10.066;2024-03-22T11:52:28;19.40;43.70
5134;DHT22;2585;48.696;10.066;2024-03-22T11:54:55;19.50;33.00
5134;DHT22;2585;48.696;10.066;2024-03-22T11:57:21;19.70;30.00
5134;DHT22;2585;48.696;10.066;2024-03-22T11:59:48;19.70;21.00
5134;DHT22;2585;48.696;10.066;2024-03-22T12:02:13;19.80;13.10
5134;DHT22;2585;48.696;10.066;2024-03-22T12:04:45;19.00;1.00
5134;DHT22;2585;48.696;10.066;2024-03-22T12:07:13;19.30;1.00
5134;DHT22;2585;48.696;10.066;2024-03-22T12:09:45;19.10;1.00
5134;DHT22;2585;48.696;10.066;2024-03-22T12:12:12;19.20;1.00
5134;DHT22;2585;48.696;10.066;2024-03-22T12:14:39;19.20;1.00
5134;DHT22;2585;48.696;10.066;2024-03-22T12:17:06;19.00;1.00
5134;DHT22;2585;48.696;10.066;2024-03-22T12:19:32;19.20;1.00
5134;DHT22;2585;48.696;10.066;2024-03-22T12:21:59;19.70;1.00
5134;DHT22;2585;48.696;10.066;2024-03-22T12:24:25;19.80;1.00
5134;DHT22;2585;48.696;10.066;2024-03-22T12:26:53;19.80;1.00
5134;DHT22;2585;48.696;10.066;2024-03-22T12:29:19;19.60;1.00
5134;DHT22;2585;48.696;10.066;2024-03-22T12:31:46;19.50;1.00
5134;DHT22;2585;48.696;10.066;2024-03-22T12:34:13;19.40;1.00
5134;DHT22;2585;48.696;10.066;2024-03-22T12:36:39;19.10;1.00
5134;DHT22;2585;48.696;10.066;2024-03-22T12:39:05;19.20;1.00
5134;DHT22;2585;48.696;10.066;2024-03-22T12:41:31;19.40;1.00
5134;DHT22;2585;48.696;10.066;2024-03-22T12:43:59;19.40;1.00
5134;DHT22;2585;48.696;10.066;2024-03-22T12:46:26;19.50;1.00
5134;DHT22;2585;48.696;10.066;2024-03-22T12:48:53;19.80;1.00
5134;DHT22;2585;48.696;10.066;2024-03-22T12:51:20;19.80;1.00
5134;DHT22;2585;48.696;10.066;2024-03-22T12:53:46;20.20;1.00
5134;DHT22;2585;48.696;10.066;2024-03-22T12:56:12;20.30;1.00
5134;DHT22;2585;48.696;10.066;2024-03-22T12:58:37;20.80;1.00
5134;DHT22;2585;48.696;10.066;2024-03-22T13:01:05;20.30;1.00
5134;DHT22;2585;48.696;10.066;2024-03-22T13:03:32;19.90;94.40
5134;DHT22;2585;48.696;10.066;2024-03-22T13:05:58;20.20;93.70
5134;DHT22;2585;48.696;10.066;2024-03-22T13:08:24;20.10;94.00
5134;DHT22;2585;48.696;10.066;2024-03-22T13:10:49;20.40;93.60
5134;DHT22;2585;48.696;10.066;2024-03-22T13:13:16;20.10;92.40
5134;DHT22;2585;48.696;10.066;2024-03-22T13:15:45;19.80;91.60
5134;DHT22;2585;48.696;10.066;2024-03-22T13:18:12;19.70;90.40
5134;DHT22;2585;48.696;10.066;2024-03-22T13:20:38;20.00;91.00
5134;DHT22;2585;48.696;10.066;2024-03-22T13:23:05;19.60;88.70
5134;DHT22;2585;48.696;10.066;2024-03-22T13:25:31;19.60;88.20
5134;DHT22;2585;48.696;10.066;2024-03-22T13:27:57;19.50;86.70
5134;DHT22;2585;48.696;10.066;2024-03-22T13:30:23;19.40;85.40
5134;DHT22;2585;48.696;10.066;2024-03-22T13:32:49;19.40;84.80
5134;DHT22;2585;48.696;10.066;2024-03-22T13:35:15;19.40;82.80
5134;DHT22;2585;48.696;10.066;2024-03-22T13:37:41;19.50;83.90
5134;DHT22;2585;48.696;10.066;2024-03-22T13:40:07;19.90;83.60
5134;DHT22;2585;48.696;10.066;2024-03-22T13:42:34;20.20;83.10
5134;DHT22;2585;48.696;10.066;2024-03-22T13:45:00;19.60;79.50
5134;DHT22;2585;48.696;10.066;2024-03-22T13:47:27;19.60;78.60
5134;DHT22;2585;48.696;10.066;2024-03-22T13:49:56;19.60;78.10
5134;DHT22;2585;48.696;10.066;2024-03-22T13:52:22;19.40;76.40
5134;DHT22;2585;48.696;10.066;2024-03-22T13:54:48;19.50;76.20
5134;DHT22;2585;48.696;10.066;2024-03-22T13:57:15;19.70;76.20
5134;DHT22;2585;48.696;10.066;2024-03-22T13:59:41;19.70;73.80
5134;DHT22;2585;48.696;10.066;2024-03-22T14:02:07;19.90;75.10
5134;DHT22;2585;48.696;10.066;2024-03-22T14:04:37;19.90;73.60
5134;DHT22;2585;48.696;10.066;2024-03-22T14:07:03;19.80;73.40
5134;DHT22;2585;48.696;10.066;2024-03-22T14:09:34;20.30;73.30
5134;DHT22;2585;48.696;10.066;2024-03-22T14:12:00;20.60;72.20
5134;DHT22;2585;48.696;10.066;2024-03-22T14:14:26;20.70;70.10
5134;DHT22;2585;48.696;10.066;2024-03-22T14:16:53;20.80;69.10
5134;DHT22;2585;48.696;10.066;2024-03-22T14:19:19;21.00;68.70
5134;DHT22;2585;48.696;10.066;2024-03-22T14:21:45;21.20;68.00
5134;DHT22;2585;48.696;10.066;2024-03-22T14:24:14;21.40;68.20
5134;DHT22;2585;48.696;10.066;2024-03-22T14:26:40;21.20;66.00
5134;DHT22;2585;48.696;10.066;2024-03-22T14:29:12;20.60;63.70
5134;DHT22;2585;48.696;10.066;2024-03-22T14:31:39;20.30;63.50
5134;DHT22;2585;48.696;10.066;2024-03-22T14:34:08;20.40;63.70
5134;DHT22;2585;48.696;10.066;2024-03-22T14:36:34;20.00;62.40
5134;DHT22;2585;48.696;10.066;2024-03-22T14:39:00;19.70;61.50
5134;DHT22;2585;48.696;10.066;2024-03-22T14:41:31;19.70;61.10
5134;DHT22;2585;48.696;10.066;2024-03-22T14:43:57;18.90;59.40
5134;DHT22;2585;48.696;10.066;2024-03-22T14:46:23;18.60;57.80
5134;DHT22;2585;48.696;10.066;2024-03-22T14:48:54;18.80;57.90
5134;DHT22;2585;48.696;10.066;2024-03-22T14:51:20;18.90;55.80
5134;DHT22;2585;48.696;10.066;2024-03-22T14:53:46;19.00;54.80
5134;DHT22;2585;48.696;10.066;2024-03-22T14:56:12;18.80;52.80
5134;DHT22;2585;48.696;10.066;2024-03-22T14:58:39;18.60;51.90
5134;DHT22;2585;48.696;10.066;2024-03-22T15:01:06;18.50;52.20
5134;DHT22;2585;48.696;10.066;2024-03-22T15:03:32;18.80;53.20
5134;DHT22;2585;48.696;10.066;2024-03-22T15:05:59;18.90;52.20
5134;DHT22;2585;48.696;10.066;2024-03-22T15:08:26;18.80;47.00
5134;DHT22;2585;48.696;10.066;2024-03-22T15:10:54;19.10;51.00
5134;DHT22;2585;48.696;10.066;2024-03-22T15:13:20;18.80;48.50
5134;DHT22;2585;48.696;10.066;2024-03-22T15:15:56;18.60;46.50
5134;DHT22;2585;48.696;10.066;2024-03-22T15:18:22;18.20;44.30
5134;DHT22;2585;48.696;10.066;2024-03-22T15:20:49;18.00;43.00
5134;DHT22;2585;48.696;10.066;2024-03-22T15:23:15;17.70;44.20
5134;DHT22;2585;48.696;10.066;2024-03-22T15:25:42;17.70;45.80
5134;DHT22;2585;48.696;10.066;2024-03-22T15:28:08;17.50;44.90
5134;DHT22;2585;48.696;10.066;2024-03-22T15:30:34;17.40;46.10
5134;DHT22;2585;48.696;10.066;2024-03-22T15:33:01;17.30;49.40
5134;DHT22;2585;48.696;10.066;2024-03-22T15:35:29;17.20;48.30
5134;DHT22;2585;48.696;10.066;2024-03-22T15:37:56;17.00;48.80
5134;DHT22;2585;48.696;10.066;2024-03-22T15:40:22;17.00;50.10
5134;DHT22;2585;48.696;10.066;2024-03-22T15:42:48;16.90;49.80
5134;DHT22;2585;48.696;10.066;2024-03-22T15:45:14;17.00;53.70
5134;DHT22;2585;48.696;10.066;2024-03-22T15:47:40;17.00;54.80
5134;DHT22;2585;48.696;10.066;2024-03-22T15:50:07;17.00;51.20
5134;DHT22;2585;48.696;10.066;2024-03-22T15:52:32;17.10;50.80
5134;DHT22;2585;48.696;10.066;2024-03-22T15:54:59;17.20;51.50